Akron Fulton International Airport Akron US
ICAO: KAKR
IATA: AKC
Category: Medium
Scheduled Services: No

Elevation: 1067 ft
TransAlt. 18000 ft.

Airport Communications:
APP/DEP:118.6
ASOS:126.825
CTAF/UNICOM:123.075
CLEVELAND RDO:114.4

KAKR Zoom In..

If Map Doesn't Load, Click Here

Runways:

(A) RW 01 length 2337 ft width 100 ft
LOC 110.90 / hdg 8

(B) RW 07 length 6336 ft width 150 ft
LOC 110.90 / hdg 69

(C) RW 19 length 2337 ft width 100 ft
LOC 110.90 / hdg 188

(D) RW 25 length 6336 ft width 150 ft
LOC 110.90 / hdg 249

Location; KAKR
Day. 21 / Time. 13.54 Zulu
* Altimeter: 30.00
* Temperature: 27° c. 80.6°f.
* Wind from: 220° Speed 11 kn.
Dewpoint: 21° c.
Visibility: 10 Statute Miles.
Clouds: Clear (automated report).

KAKR 211354Z AUTO 22011KT 10SM CLR 27/21 A3000 RMK AO2 SLP147 T02720206


Wind From 220°
Speed 11 kn.

 
 
jpsmedia.com for Web Design worldairports.se 2018   terms of use